createdAt,value
2022-11-19T00:02:17.069Z,7.30
2022-11-19T00:04:45.233Z,7.40
2022-11-19T00:07:13.168Z,7.40
2022-11-19T00:09:42.369Z,7.50
2022-11-19T00:12:28.705Z,7.50
2022-11-19T00:14:56.628Z,7.40
2022-11-19T00:17:24.822Z,7.50
2022-11-19T00:19:52.658Z,7.50
2022-11-19T00:22:20.484Z,7.50
2022-11-19T00:24:49.696Z,7.60
2022-11-19T00:27:17.574Z,7.50
2022-11-19T00:29:45.441Z,7.60
2022-11-19T00:32:13.292Z,7.50
2022-11-19T00:34:41.151Z,7.50
2022-11-19T00:37:09.380Z,7.50
2022-11-19T00:39:37.228Z,7.50
2022-11-19T00:42:06.729Z,7.50
2022-11-19T00:44:37.482Z,7.50
2022-11-19T00:47:05.920Z,7.50
2022-11-19T00:49:33.846Z,7.50
2022-11-19T00:52:01.703Z,7.40
2022-11-19T00:54:29.580Z,7.40
2022-11-19T00:56:57.427Z,7.30
2022-11-19T00:59:27.783Z,7.30
2022-11-19T01:01:55.664Z,7.20
2022-11-19T01:04:23.496Z,7.20
2022-11-19T01:06:51.374Z,7.20
2022-11-19T01:09:19.809Z,7.20
2022-11-19T01:11:47.865Z,7.10
2022-11-19T01:14:15.774Z,7.10
2022-11-19T01:16:44.995Z,7.10
2022-11-19T01:19:16.196Z,7.10
2022-11-19T01:21:44.153Z,7.10
2022-11-19T01:24:12.037Z,7.10
2022-11-19T01:26:44.425Z,7.10
2022-11-19T01:29:14.119Z,7.10
2022-11-19T01:31:42.037Z,7.10
2022-11-19T01:34:11.217Z,7.20
2022-11-19T01:36:39.179Z,7.10
2022-11-19T01:39:07.075Z,7.20
2022-11-19T01:41:34.999Z,7.10
2022-11-19T01:44:04.508Z,7.20
2022-11-19T01:46:34.800Z,7.20
2022-11-19T01:49:05.313Z,7.20
2022-11-19T01:51:38.993Z,7.20
2022-11-19T01:54:13.604Z,7.20
2022-11-19T01:56:41.557Z,7.10
2022-11-19T01:59:12.339Z,7.10
2022-11-19T02:01:40.306Z,7.00
2022-11-19T02:04:08.912Z,7.00
2022-11-19T02:06:39.794Z,6.90
2022-11-19T02:09:07.717Z,6.80
2022-11-19T02:11:55.853Z,6.80
2022-11-19T02:14:58.787Z,6.80
2022-11-19T02:17:39.838Z,6.80
2022-11-19T02:20:32.079Z,6.70
2022-11-19T02:23:17.525Z,6.60
2022-11-19T02:26:04.070Z,6.50
2022-11-19T02:28:36.859Z,6.50
2022-11-19T02:31:11.788Z,6.40
2022-11-19T02:33:49.708Z,6.40
2022-11-19T02:36:22.986Z,6.40
2022-11-19T02:38:57.325Z,6.40
2022-11-19T02:41:36.983Z,6.40
2022-11-19T02:44:43.195Z,6.40
2022-11-19T02:47:17.172Z,6.40
2022-11-19T02:49:46.047Z,6.50
2022-11-19T02:52:15.609Z,6.40
2022-11-19T02:54:43.686Z,6.40
2022-11-19T02:57:13.223Z,6.40
2022-11-19T03:00:15.676Z,6.40
2022-11-19T03:03:06.507Z,6.40
2022-11-19T03:05:38.701Z,6.50
2022-11-19T03:08:07.337Z,6.50
2022-11-19T03:10:43.502Z,6.50
2022-11-19T03:13:35.631Z,6.60
2022-11-19T03:16:25.085Z,6.60
2022-11-19T03:19:00.551Z,6.50
2022-11-19T03:21:34.296Z,6.50
2022-11-19T03:24:06.268Z,6.60
2022-11-19T03:26:37.026Z,6.60
2022-11-19T03:29:08.766Z,6.60
2022-11-19T03:31:39.216Z,6.60
2022-11-19T03:34:14.300Z,6.70
2022-11-19T03:36:43.832Z,6.70
2022-11-19T03:39:14.932Z,6.70
2022-11-19T03:41:45.045Z,6.80
2022-11-19T03:44:16.297Z,6.80
2022-11-19T03:46:47.646Z,6.80
2022-11-19T03:49:20.084Z,6.90
2022-11-19T03:51:52.561Z,7.00
2022-11-19T03:54:20.638Z,7.00
2022-11-19T03:56:50.237Z,7.00
2022-11-19T03:59:18.629Z,7.00
2022-11-19T04:01:49.251Z,7.00
2022-11-19T04:04:32.798Z,7.00
2022-11-19T04:07:00.713Z,7.00
2022-11-19T04:09:28.563Z,7.00
2022-11-19T04:11:56.409Z,7.10
2022-11-19T04:14:24.272Z,7.20
2022-11-19T04:16:52.138Z,7.30
2022-11-19T04:19:21.751Z,7.40
2022-11-19T04:21:50.148Z,7.50
2022-11-19T04:24:18.366Z,7.60
2022-11-19T04:26:46.274Z,7.50
2022-11-19T04:29:14.205Z,7.50
2022-11-19T04:31:42.332Z,7.40
2022-11-19T04:34:10.517Z,7.40
2022-11-19T04:36:42.097Z,7.40
2022-11-19T04:39:12.343Z,7.40
2022-11-19T04:41:41.198Z,7.40
2022-11-19T04:44:09.107Z,7.40
2022-11-19T04:46:36.979Z,7.40
2022-11-19T04:49:05.258Z,7.50
2022-11-19T04:51:33.099Z,7.50
2022-11-19T04:54:02.384Z,7.50
2022-11-19T04:56:30.211Z,7.50
2022-11-19T04:58:58.082Z,7.50
2022-11-19T05:01:25.969Z,7.40
2022-11-19T05:03:53.860Z,7.40
2022-11-19T05:06:21.755Z,7.40
2022-11-19T05:08:49.637Z,7.30
2022-11-19T05:11:19.115Z,7.30
2022-11-19T05:13:47.179Z,7.20
2022-11-19T05:16:15.037Z,7.10
2022-11-19T05:18:42.927Z,7.10
2022-11-19T05:21:10.813Z,7.10
2022-11-19T05:23:38.686Z,7.10
2022-11-19T05:26:06.801Z,7.10
2022-11-19T05:28:39.928Z,7.20
2022-11-19T05:31:08.423Z,7.20
2022-11-19T05:33:36.368Z,7.20
2022-11-19T05:36:04.583Z,7.20
2022-11-19T05:38:32.419Z,7.20
2022-11-19T05:41:00.279Z,7.20
2022-11-19T05:43:28.141Z,7.20
2022-11-19T05:46:00.734Z,7.20
2022-11-19T05:48:28.799Z,7.30
2022-11-19T05:50:56.811Z,7.30
2022-11-19T05:53:24.746Z,7.40
2022-11-19T05:55:52.664Z,7.40
2022-11-19T05:58:20.662Z,7.40
2022-11-19T06:00:49.066Z,7.40
2022-11-19T06:03:18.321Z,7.40
2022-11-19T06:05:46.230Z,7.40
2022-11-19T06:08:14.084Z,7.30
2022-11-19T06:10:41.945Z,7.30
2022-11-19T06:13:09.824Z,7.30
2022-11-19T06:15:37.781Z,7.30
2022-11-19T06:18:05.892Z,7.30
2022-11-19T06:20:35.103Z,7.30
2022-11-19T06:23:03.089Z,7.30
2022-11-19T06:25:30.972Z,7.20
2022-11-19T06:27:58.858Z,7.20
2022-11-19T06:30:26.685Z,7.10
2022-11-19T06:32:54.608Z,7.10
2022-11-19T06:35:22.437Z,7.10
2022-11-19T06:37:51.650Z,7.10
2022-11-19T06:40:19.606Z,7.20
2022-11-19T06:42:50.927Z,7.20
2022-11-19T06:45:19.279Z,7.30
2022-11-19T06:47:48.873Z,7.30
2022-11-19T06:50:18.020Z,7.20
2022-11-19T06:52:46.106Z,7.20
2022-11-19T06:55:15.580Z,7.10
2022-11-19T06:57:43.506Z,7.10
2022-11-19T07:00:12.871Z,7.10
2022-11-19T07:02:40.979Z,7.10
2022-11-19T07:05:09.467Z,7.00
2022-11-19T07:07:37.392Z,7.00
2022-11-19T07:10:05.816Z,7.00
2022-11-19T07:12:35.007Z,7.00
2022-11-19T07:15:04.742Z,7.00
2022-11-19T07:17:33.023Z,6.90
2022-11-19T07:20:00.905Z,6.90
2022-11-19T07:22:28.881Z,6.80
2022-11-19T07:24:56.776Z,6.80
2022-11-19T07:27:24.649Z,6.80
2022-11-19T07:29:53.834Z,6.70
2022-11-19T07:32:22.212Z,6.70
2022-11-19T07:34:50.209Z,6.70
2022-11-19T07:37:18.515Z,6.70
2022-11-19T07:39:46.892Z,6.70
2022-11-19T07:42:28.742Z,6.70
2022-11-19T07:44:57.960Z,6.70
2022-11-19T07:47:25.783Z,6.80
2022-11-19T07:49:54.214Z,6.80
2022-11-19T07:52:22.344Z,6.80
2022-11-19T07:54:50.214Z,6.80
2022-11-19T07:57:18.120Z,6.90
2022-11-19T07:59:45.972Z,7.00
2022-11-19T08:02:15.437Z,7.00
2022-11-19T08:04:43.362Z,7.00
2022-11-19T08:07:11.291Z,7.10
2022-11-19T08:09:39.190Z,7.10
2022-11-19T08:12:07.397Z,7.20
2022-11-19T08:14:35.293Z,7.20
2022-11-19T08:17:20.927Z,7.30
2022-11-19T08:19:50.154Z,7.30
2022-11-19T08:22:18.096Z,7.40
2022-11-19T08:24:45.957Z,7.40
2022-11-19T08:27:13.906Z,7.50
2022-11-19T08:29:41.813Z,7.50
2022-11-19T08:32:09.746Z,7.60
2022-11-19T08:34:37.575Z,7.60
2022-11-19T08:37:07.075Z,7.70
2022-11-19T08:39:34.975Z,7.70
2022-11-19T08:42:20.116Z,7.70
2022-11-19T08:44:47.942Z,7.80
2022-11-19T08:47:15.803Z,7.90
2022-11-19T08:49:43.636Z,7.90
2022-11-19T08:52:12.792Z,7.90
2022-11-19T08:54:40.738Z,8.00
2022-11-19T08:57:08.551Z,8.00
2022-11-19T08:59:36.395Z,8.10
2022-11-19T09:02:04.275Z,8.10
2022-11-19T09:04:32.165Z,8.20
2022-11-19T09:07:00.090Z,8.30
2022-11-19T09:09:29.405Z,8.40
2022-11-19T09:11:57.269Z,8.40
2022-11-19T09:14:25.104Z,8.50
2022-11-19T09:16:52.960Z,8.50
2022-11-19T09:19:20.931Z,8.50
2022-11-19T09:21:49.333Z,8.50
2022-11-19T09:24:17.430Z,8.60
2022-11-19T09:26:52.493Z,8.60
2022-11-19T09:29:23.596Z,8.60
2022-11-19T09:31:51.500Z,8.60
2022-11-19T09:34:19.656Z,8.70
2022-11-19T09:36:47.771Z,8.70
2022-11-19T09:39:15.886Z,8.80
2022-11-19T09:41:51.148Z,8.80
2022-11-19T09:44:41.306Z,8.80
2022-11-19T09:47:21.631Z,8.90
2022-11-19T09:50:12.599Z,9.00
2022-11-19T09:52:45.575Z,8.90
2022-11-19T09:55:19.236Z,8.90
2022-11-19T09:57:51.713Z,8.90
2022-11-19T10:00:22.137Z,8.90
2022-11-19T10:02:50.621Z,8.90
2022-11-19T10:05:28.388Z,8.90
2022-11-19T10:08:03.173Z,8.90
2022-11-19T10:10:40.851Z,9.00
2022-11-19T10:13:36.662Z,8.90
2022-11-19T10:16:23.309Z,8.90
2022-11-19T10:18:58.683Z,8.90
2022-11-19T10:21:31.480Z,8.80
2022-11-19T10:24:09.311Z,8.90
2022-11-19T10:26:40.558Z,8.90
2022-11-19T10:29:16.186Z,8.90
2022-11-19T10:31:47.201Z,9.00
2022-11-19T10:34:23.941Z,9.00
2022-11-19T10:36:57.440Z,9.10
2022-11-19T10:39:32.338Z,9.20
2022-11-19T10:42:09.840Z,9.20
2022-11-19T10:44:43.455Z,9.20
2022-11-19T10:47:18.497Z,9.20
2022-11-19T10:49:47.976Z,9.20
2022-11-19T10:52:23.654Z,9.30
2022-11-19T10:54:54.789Z,9.30
2022-11-19T10:57:24.115Z,9.20
2022-11-19T10:59:54.716Z,9.20
2022-11-19T11:02:32.579Z,9.20
2022-11-19T11:05:02.912Z,9.20
2022-11-19T11:07:50.462Z,9.20
2022-11-19T11:10:37.125Z,9.20
2022-11-19T11:13:33.714Z,9.20
2022-11-19T11:16:11.002Z,9.10
2022-11-19T11:18:40.523Z,9.20
2022-11-19T11:21:12.684Z,9.20
2022-11-19T11:23:52.047Z,9.20
2022-11-19T11:26:23.646Z,9.10
2022-11-19T11:29:02.931Z,9.20
2022-11-19T11:31:38.181Z,9.20
2022-11-19T11:34:07.475Z,9.20
2022-11-19T11:36:38.026Z,9.20
2022-11-19T11:39:07.171Z,9.20
2022-11-19T11:42:05.556Z,9.30
2022-11-19T11:44:29.829Z,9.40
2022-11-19T11:47:02.691Z,9.30
2022-11-19T11:49:34.915Z,9.30
2022-11-19T11:52:19.086Z,9.30
2022-11-19T11:54:59.354Z,9.30
2022-11-19T11:57:29.279Z,9.30
2022-11-19T11:59:57.553Z,9.20
2022-11-19T12:02:30.820Z,9.20
2022-11-19T12:05:02.304Z,9.30
2022-11-19T12:07:56.075Z,9.30
2022-11-19T12:10:34.938Z,9.20
2022-11-19T12:13:31.839Z,9.10
2022-11-19T12:16:07.920Z,8.90
2022-11-19T12:18:46.923Z,8.80
2022-11-19T12:21:27.047Z,8.70
2022-11-19T12:24:08.903Z,8.60
2022-11-19T12:26:44.910Z,8.60
2022-11-19T12:29:21.724Z,8.60
2022-11-19T12:32:15.024Z,8.70
2022-11-19T12:35:09.917Z,8.70
2022-11-19T12:38:03.999Z,8.80
2022-11-19T12:40:42.812Z,8.90
2022-11-19T12:43:29.747Z,8.90
2022-11-19T12:46:07.182Z,8.90
2022-11-19T12:48:55.578Z,8.90
2022-11-19T12:51:37.616Z,8.90
2022-11-19T12:54:33.369Z,9.00
2022-11-19T12:57:19.320Z,9.10
2022-11-19T13:00:05.150Z,9.10
2022-11-19T13:02:40.471Z,9.00
2022-11-19T13:05:16.032Z,9.00
2022-11-19T13:07:50.607Z,9.00
2022-11-19T13:10:23.612Z,9.00
2022-11-19T13:12:55.576Z,9.00
2022-11-19T13:15:29.084Z,9.00
2022-11-19T13:17:59.640Z,9.00
2022-11-19T13:20:41.507Z,8.90
2022-11-19T13:23:18.593Z,8.90
2022-11-19T13:25:51.362Z,8.80
2022-11-19T13:28:24.410Z,8.90
2022-11-19T13:30:55.038Z,8.90
2022-11-19T13:33:27.906Z,8.90
2022-11-19T13:36:03.726Z,9.00
2022-11-19T13:38:44.540Z,8.90
2022-11-19T13:41:16.674Z,9.00
2022-11-19T13:44:03.295Z,9.00
2022-11-19T13:46:36.493Z,8.90
2022-11-19T13:49:08.882Z,8.90
2022-11-19T13:51:40.860Z,8.90
2022-11-19T13:54:19.650Z,9.00
2022-11-19T13:56:50.170Z,9.00
2022-11-19T13:59:44.333Z,9.00
2022-11-19T14:02:45.994Z,9.10
2022-11-19T14:05:33.847Z,9.00
2022-11-19T14:08:15.759Z,9.00
2022-11-19T14:10:57.934Z,9.10
2022-11-19T14:13:43.019Z,9.20
2022-11-19T14:16:39.202Z,9.20
2022-11-19T14:19:31.518Z,9.20
2022-11-19T14:22:18.419Z,9.20
2022-11-19T14:25:15.029Z,9.10
2022-11-19T14:27:45.238Z,9.10
2022-11-19T14:30:15.753Z,9.10
2022-11-19T14:32:47.547Z,9.10
2022-11-19T14:35:42.778Z,9.10
2022-11-19T14:38:39.417Z,9.20
2022-11-19T14:41:28.715Z,9.20
2022-11-19T14:44:11.025Z,9.20
2022-11-19T14:46:41.341Z,9.20
2022-11-19T14:49:30.347Z,9.20
2022-11-19T14:51:58.742Z,9.30
2022-11-19T14:54:39.886Z,9.20
2022-11-19T14:57:16.751Z,9.20
2022-11-19T14:59:52.657Z,9.10
2022-11-19T15:02:26.849Z,9.10
2022-11-19T15:05:08.414Z,9.10
2022-11-19T15:07:42.773Z,9.20
2022-11-19T15:10:33.707Z,9.20
2022-11-19T15:13:20.937Z,9.20
2022-11-19T15:15:53.924Z,9.20
2022-11-19T15:18:51.343Z,9.20
2022-11-19T15:21:38.925Z,9.20
2022-11-19T15:24:17.243Z,9.30
2022-11-19T15:26:55.986Z,9.20
2022-11-19T15:29:38.574Z,9.30
2022-11-19T15:32:19.854Z,9.20
2022-11-19T15:35:16.006Z,9.20
2022-11-19T15:37:48.299Z,9.20
2022-11-19T15:40:20.508Z,9.20
2022-11-19T15:42:54.069Z,9.10
2022-11-19T15:45:24.685Z,9.10
2022-11-19T15:47:58.178Z,9.20
2022-11-19T15:50:28.984Z,9.20
2022-11-19T15:53:01.458Z,9.30
2022-11-19T15:55:30.914Z,9.10
2022-11-19T15:58:02.865Z,9.00
2022-11-19T16:00:30.762Z,8.80
2022-11-19T16:03:01.901Z,8.60
2022-11-19T16:05:32.686Z,8.40
2022-11-19T16:08:06.201Z,8.30
2022-11-19T16:10:36.689Z,8.10
2022-11-19T16:13:38.940Z,7.90
2022-11-19T16:16:39.116Z,7.70
2022-11-19T16:19:08.334Z,7.50
2022-11-19T16:21:39.905Z,7.40
2022-11-19T16:24:31.786Z,7.30
2022-11-19T16:27:01.057Z,7.30
2022-11-19T16:29:29.565Z,7.40
2022-11-19T16:32:00.569Z,7.40
2022-11-19T16:34:32.262Z,7.30
2022-11-19T16:37:00.772Z,7.20
2022-11-19T16:39:31.653Z,7.30
2022-11-19T16:42:17.880Z,7.20
2022-11-19T16:44:47.403Z,7.20
2022-11-19T16:47:22.046Z,7.30
2022-11-19T16:50:01.195Z,7.20
2022-11-19T16:52:40.247Z,7.30
2022-11-19T16:55:42.789Z,7.20
2022-11-19T16:58:20.129Z,7.30
2022-11-19T17:00:51.004Z,7.30
2022-11-19T17:03:29.840Z,7.30
2022-11-19T17:05:59.917Z,7.30
2022-11-19T17:08:30.211Z,7.20
2022-11-19T17:11:36.748Z,7.20
2022-11-19T17:14:19.054Z,7.20
2022-11-19T17:16:48.728Z,7.20
2022-11-19T17:19:27.048Z,7.30
2022-11-19T17:22:00.727Z,7.20
2022-11-19T17:24:32.665Z,7.30
2022-11-19T17:27:00.850Z,7.30
2022-11-19T17:29:28.884Z,7.30
2022-11-19T17:31:57.443Z,7.30
2022-11-19T17:34:31.923Z,7.40
2022-11-19T17:37:01.363Z,7.50
2022-11-19T17:39:29.304Z,7.50
2022-11-19T17:42:15.397Z,7.50
2022-11-19T17:44:43.462Z,7.60
2022-11-19T17:47:24.540Z,7.60
2022-11-19T17:49:53.462Z,7.50
2022-11-19T17:52:24.854Z,7.50
2022-11-19T17:54:54.814Z,7.60
2022-11-19T17:57:22.938Z,7.50
2022-11-19T17:59:50.885Z,7.50
2022-11-19T18:02:20.884Z,7.40
2022-11-19T18:04:50.504Z,7.40
2022-11-19T18:07:18.429Z,7.40
2022-11-19T18:09:47.678Z,7.40
2022-11-19T18:12:18.435Z,7.40
2022-11-19T18:14:47.280Z,7.50
2022-11-19T18:17:16.600Z,7.50
2022-11-19T18:19:44.504Z,7.40
2022-11-19T18:22:19.010Z,7.50
2022-11-19T18:24:50.130Z,7.40
2022-11-19T18:27:18.233Z,7.40
2022-11-19T18:29:46.084Z,7.30
2022-11-19T18:32:16.625Z,7.20
2022-11-19T18:34:45.244Z,7.20
2022-11-19T18:37:13.490Z,7.20
2022-11-19T18:39:41.398Z,7.20
2022-11-19T18:42:11.754Z,7.20
2022-11-19T18:44:41.551Z,7.20
2022-11-19T18:47:11.768Z,7.30
2022-11-19T18:49:40.194Z,7.20
2022-11-19T18:52:10.076Z,7.20
2022-11-19T18:54:38.654Z,7.20
2022-11-19T18:57:06.553Z,7.20
2022-11-19T18:59:35.744Z,7.20
2022-11-19T19:02:03.720Z,7.20
2022-11-19T19:04:31.775Z,7.20
2022-11-19T19:06:59.774Z,7.20
2022-11-19T19:09:27.709Z,7.30
2022-11-19T19:12:13.988Z,7.40
2022-11-19T19:14:43.749Z,7.50
2022-11-19T19:17:12.483Z,7.60
2022-11-19T19:19:40.635Z,7.70
2022-11-19T19:22:09.220Z,7.70
2022-11-19T19:24:37.166Z,7.80
2022-11-19T19:27:05.494Z,7.90
2022-11-19T19:29:33.640Z,7.80
2022-11-19T19:32:02.950Z,7.80
2022-11-19T19:34:31.079Z,7.80
2022-11-19T19:36:59.212Z,7.80
2022-11-19T19:39:27.106Z,7.70
2022-11-19T19:41:55.181Z,7.90
2022-11-19T19:44:23.228Z,7.90
2022-11-19T19:46:51.481Z,7.70
2022-11-19T19:49:21.155Z,7.70
2022-11-19T19:51:50.857Z,7.60
2022-11-19T19:54:18.850Z,7.50
2022-11-19T19:56:46.795Z,7.50
2022-11-19T19:59:15.142Z,7.50
2022-11-19T20:01:47.278Z,7.50
2022-11-19T20:04:15.268Z,7.60
2022-11-19T20:06:47.636Z,7.50
2022-11-19T20:09:15.714Z,7.60
2022-11-19T20:11:43.636Z,7.60
2022-11-19T20:14:12.171Z,7.50
2022-11-19T20:16:41.626Z,7.60
2022-11-19T20:19:12.720Z,7.60
2022-11-19T20:21:40.740Z,7.50
2022-11-19T20:24:12.619Z,7.40
2022-11-19T20:26:42.914Z,7.40
2022-11-19T20:29:13.396Z,7.40
2022-11-19T20:31:42.183Z,7.50
2022-11-19T20:34:12.771Z,7.50
2022-11-19T20:36:40.677Z,7.50
2022-11-19T20:39:10.480Z,7.50
2022-11-19T20:41:56.062Z,7.50
2022-11-19T20:44:24.074Z,7.40
2022-11-19T20:46:53.427Z,7.30
2022-11-19T20:49:23.476Z,7.30
2022-11-19T20:51:52.658Z,7.20
2022-11-19T20:54:22.587Z,7.20
2022-11-19T20:56:51.760Z,7.30
2022-11-19T20:59:20.296Z,7.30
2022-11-19T21:01:49.394Z,7.30
2022-11-19T21:04:17.637Z,7.20
2022-11-19T21:06:45.746Z,7.20
2022-11-19T21:09:14.823Z,7.20
2022-11-19T21:11:44.796Z,7.30
2022-11-19T21:14:12.809Z,7.20
2022-11-19T21:16:40.929Z,7.20
2022-11-19T21:19:10.165Z,7.10
2022-11-19T21:21:38.440Z,7.10
2022-11-19T21:24:07.161Z,7.00
2022-11-19T21:26:35.124Z,7.10
2022-11-19T21:29:04.591Z,7.10
2022-11-19T21:31:41.924Z,7.10
2022-11-19T21:34:11.919Z,7.10
2022-11-19T21:36:40.623Z,7.00
2022-11-19T21:39:09.304Z,7.00
2022-11-19T21:41:37.428Z,7.00
2022-11-19T21:44:07.020Z,6.90
2022-11-19T21:46:35.604Z,6.80
2022-11-19T21:49:03.724Z,6.70
2022-11-19T21:51:31.635Z,6.60
2022-11-19T21:54:00.283Z,6.60
2022-11-19T21:56:33.790Z,6.60
2022-11-19T21:59:06.538Z,6.50
2022-11-19T22:01:34.414Z,6.40
2022-11-19T22:04:02.301Z,6.40
2022-11-19T22:06:31.187Z,6.40
2022-11-19T22:08:59.120Z,6.50
2022-11-19T22:11:29.844Z,6.50
2022-11-19T22:13:59.466Z,6.50
2022-11-19T22:16:29.420Z,6.50
2022-11-19T22:18:57.414Z,6.40
2022-11-19T22:21:26.576Z,6.40
2022-11-19T22:23:54.447Z,6.40
2022-11-19T22:26:22.405Z,6.50
2022-11-19T22:28:50.467Z,6.50
2022-11-19T22:31:18.365Z,6.60
2022-11-19T22:33:51.354Z,6.60
2022-11-19T22:36:20.493Z,6.60
2022-11-19T22:38:48.493Z,6.50
2022-11-19T22:41:18.141Z,6.50
2022-11-19T22:43:46.137Z,6.40
2022-11-19T22:46:15.224Z,6.40
2022-11-19T22:48:43.158Z,6.40
2022-11-19T22:51:14.892Z,6.50
2022-11-19T22:53:43.397Z,6.40
2022-11-19T22:56:13.480Z,6.40
2022-11-19T22:58:41.374Z,6.40
2022-11-19T23:01:15.386Z,6.40
2022-11-19T23:03:43.410Z,6.50
2022-11-19T23:06:12.632Z,6.40
2022-11-19T23:08:40.521Z,6.40
2022-11-19T23:11:09.308Z,6.40
2022-11-19T23:13:38.979Z,6.40
2022-11-19T23:16:09.139Z,6.40
2022-11-19T23:18:39.278Z,6.40
2022-11-19T23:21:09.463Z,6.50
2022-11-19T23:23:38.826Z,6.40
2022-11-19T23:26:08.524Z,6.40
2022-11-19T23:28:37.815Z,6.30
2022-11-19T23:31:07.310Z,6.20
2022-11-19T23:33:35.192Z,6.20
2022-11-19T23:36:04.305Z,6.10
2022-11-19T23:38:32.379Z,6.20
2022-11-19T23:41:02.184Z,6.10
2022-11-19T23:43:30.642Z,6.10
2022-11-19T23:46:05.571Z,6.10
2022-11-19T23:48:34.103Z,6.10
2022-11-19T23:51:03.027Z,6.10
2022-11-19T23:53:31.048Z,6.00
2022-11-19T23:55:59.032Z,6.00
2022-11-19T23:58:28.297Z,6.00
